Pays
Station

 

Conditions  météo  pour  Marion Regional  -  Etats-Unis    Etats-Unis

  
-4 °C
    
 
 

METAR pour Marion Regional :

KMWA 212145Z 15012KT 20SM OVC150 M04/M12 A3041

 

Voici le bulletin pour Marion Regional - Etats-Unis.
 
Le bulletin a été fait il y a 14 minutes, à 21:45 UTC .
Le vent soufflait à la vitesse de 6.2 mètres par seconde de Sud/Sud-est (150°).
 
La température était de -4 °C, avec un point de rosée à -12 °C.
La température ressentie était de -10 °C.
 
La pression atmosphérique était de 1030 hPa.
L'humidité relative était de 53.6%.
 
Le ciel était nuageux à partir d'une hauteur de 4572 mètres
 
La visibilité globale était de 32.2 kilomètres.
 

 
 
 

Pays :   A   B   C   D   E   F   G   H   I   J   K   L   M   N   O   P   Q   R   S   T   U   V   W   Y   Z

 

Partenaires :  Info Météo avec Met'info
Météo Marine avec MeteoMarine.net
Infos Site  |  Infos Légales  |  Crédits  |  Confidentialité
Contactez-nous  |  Ajouter aux favoris
© 2013-2019 METAR - Tous droits réservés